Montezuma, Indiana
Current Conditions -  °F | °C
As of 3:15 PM on Saturday 25 Oct 2014 (Local Time) from KPRG Reporting Station
Clear Clear  
Wind Chill: 78°   Ceiling: Unl
Heat Index: 78°   Visibility: 10mi
Dew Point: 48°   Wind: 9mph
Humidity: 35%   Direction: 290°WNW
Pressure: 29.97"   Gusts: NA
Location:  39.79°N, 87.37°W
Report Text: KPRG 251915Z AUTO 29008KT 10SM CLR 26/09 A2997 RMK AO2 T02550091 PWINO
Loading
Personal Weather Stations






























Interactive Weather Map
Tropical Storm Tracking
New forecast layout! Learn more

10-Day Weather Forecast

Advertisements
Track Severe Weather on mobile